createdAt,value
2023-11-27T00:02:08.086Z,74.00
2023-11-27T00:04:35.607Z,73.90
2023-11-27T00:07:02.741Z,73.71
2023-11-27T00:09:30.203Z,73.77
2023-11-27T00:11:57.158Z,73.54
2023-11-27T00:14:24.590Z,73.94
2023-11-27T00:16:51.582Z,74.37
2023-11-27T00:19:19.038Z,73.75
2023-11-27T00:21:46.137Z,74.19
2023-11-27T00:24:13.868Z,73.88
2023-11-27T00:26:40.861Z,74.22
2023-11-27T00:29:08.613Z,74.10
2023-11-27T00:31:36.116Z,74.06
2023-11-27T00:34:04.435Z,73.77
2023-11-27T00:36:31.463Z,73.57
2023-11-27T00:38:59.231Z,74.16
2023-11-27T00:41:26.227Z,73.63
2023-11-27T00:43:53.607Z,73.77
2023-11-27T00:46:20.782Z,73.59
2023-11-27T00:48:48.381Z,74.08
2023-11-27T00:51:15.376Z,73.79
2023-11-27T00:53:42.681Z,73.62
2023-11-27T00:56:10.078Z,73.66
2023-11-27T00:58:37.438Z,73.20
2023-11-27T01:01:06.374Z,73.96
2023-11-27T01:03:33.826Z,73.83
2023-11-27T01:06:01.108Z,73.60
2023-11-27T01:08:28.497Z,73.03
2023-11-27T01:10:55.528Z,74.01
2023-11-27T01:13:22.727Z,74.56
2023-11-27T01:15:49.781Z,74.55
2023-11-27T01:18:17.014Z,74.08
2023-11-27T01:20:44.159Z,74.06
2023-11-27T01:23:11.349Z,74.52
2023-11-27T01:25:38.366Z,74.39
2023-11-27T01:28:06.201Z,74.62
2023-11-27T01:30:33.580Z,74.72
2023-11-27T01:33:00.993Z,75.47
2023-11-27T01:35:28.033Z,75.65
2023-11-27T01:37:55.200Z,75.05
2023-11-27T01:40:23.502Z,75.65
2023-11-27T01:42:50.815Z,76.85
2023-11-27T01:45:17.791Z,76.25
2023-11-27T01:47:45.177Z,77.25
2023-11-27T01:50:12.877Z,76.61
2023-11-27T01:52:41.134Z,76.31
2023-11-27T01:55:09.570Z,76.23
2023-11-27T01:57:37.411Z,77.83
2023-11-27T02:00:08.922Z,77.83
2023-11-27T02:02:36.278Z,78.14
2023-11-27T02:05:03.877Z,77.87
2023-11-27T02:07:31.111Z,78.87
2023-11-27T02:09:58.105Z,78.70
2023-11-27T02:12:25.408Z,78.36
2023-11-27T02:14:53.855Z,78.55
2023-11-27T02:17:21.196Z,78.30
2023-11-27T02:19:48.098Z,79.06
2023-11-27T02:22:15.329Z,78.18
2023-11-27T02:24:43.512Z,78.27
2023-11-27T02:27:10.871Z,78.23
2023-11-27T02:29:37.973Z,78.51
2023-11-27T02:32:05.955Z,78.08
2023-11-27T02:34:33.138Z,78.25
2023-11-27T02:37:00.478Z,78.41
2023-11-27T02:39:27.500Z,79.17
2023-11-27T02:41:54.788Z,79.46
2023-11-27T02:44:21.878Z,78.68
2023-11-27T02:46:49.102Z,79.51
2023-11-27T02:49:16.108Z,79.28
2023-11-27T02:51:43.360Z,80.25
2023-11-27T02:54:11.429Z,80.51
2023-11-27T02:56:38.724Z,80.33
2023-11-27T02:59:05.725Z,79.66
2023-11-27T03:01:33.000Z,79.61
2023-11-27T03:04:00.344Z,80.02
2023-11-27T03:06:27.690Z,80.17
2023-11-27T03:08:54.666Z,80.16
2023-11-27T03:11:21.889Z,80.22
2023-11-27T03:13:49.152Z,80.20
2023-11-27T03:16:16.676Z,80.29
2023-11-27T03:18:43.990Z,80.42
2023-11-27T03:21:23.858Z,79.86
2023-11-27T03:23:51.091Z,80.77
2023-11-27T03:26:19.650Z,80.00
2023-11-27T03:28:46.844Z,80.26
2023-11-27T03:31:14.116Z,80.10
2023-11-27T03:33:41.329Z,79.80
2023-11-27T03:36:09.042Z,79.88
2023-11-27T03:38:36.357Z,80.27
2023-11-27T03:41:05.044Z,80.23
2023-11-27T03:43:33.386Z,80.39
2023-11-27T03:46:01.482Z,80.19
2023-11-27T03:48:28.546Z,80.94
2023-11-27T03:50:55.889Z,80.39
2023-11-27T03:53:22.808Z,80.88
2023-11-27T03:55:50.222Z,82.01
2023-11-27T03:58:17.184Z,82.16
2023-11-27T04:00:44.352Z,82.40
2023-11-27T04:03:11.250Z,81.83
2023-11-27T04:05:38.667Z,82.40
2023-11-27T04:08:05.813Z,81.51
2023-11-27T04:10:33.011Z,80.89
2023-11-27T04:12:59.992Z,81.60
2023-11-27T04:15:27.232Z,82.51
2023-11-27T04:17:54.248Z,82.69
2023-11-27T04:20:21.468Z,82.64
2023-11-27T04:22:48.448Z,82.73
2023-11-27T04:25:15.832Z,83.13
2023-11-27T04:27:42.891Z,83.04
2023-11-27T04:30:10.663Z,82.19
2023-11-27T04:32:38.071Z,83.02
2023-11-27T04:35:05.802Z,83.01
2023-11-27T04:37:33.345Z,82.91
2023-11-27T04:40:00.602Z,83.54
2023-11-27T04:42:27.623Z,83.40
2023-11-27T04:44:54.975Z,82.79
2023-11-27T04:47:22.023Z,82.68
2023-11-27T04:49:49.328Z,83.02
2023-11-27T04:52:16.395Z,83.66
2023-11-27T04:54:43.678Z,83.05
2023-11-27T04:57:11.483Z,83.11
2023-11-27T04:59:38.754Z,82.94
2023-11-27T05:02:06.199Z,82.83
2023-11-27T05:04:35.089Z,82.65
2023-11-27T05:07:02.288Z,82.85
2023-11-27T05:09:29.739Z,83.02
2023-11-27T05:11:56.746Z,82.27
2023-11-27T05:14:23.584Z,82.97
2023-11-27T05:16:50.869Z,81.54
2023-11-27T05:19:17.847Z,83.10
2023-11-27T05:21:45.254Z,82.62
2023-11-27T05:24:12.177Z,82.10
2023-11-27T05:26:39.491Z,82.21
2023-11-27T05:29:06.394Z,81.94
2023-11-27T05:31:33.667Z,81.87
2023-11-27T05:34:00.604Z,81.98
2023-11-27T05:36:28.049Z,82.52
2023-11-27T05:38:54.996Z,82.06
2023-11-27T05:41:23.437Z,82.61
2023-11-27T05:43:50.600Z,82.24
2023-11-27T05:46:19.486Z,82.15
2023-11-27T05:48:46.592Z,82.11
2023-11-27T05:51:13.892Z,82.50
2023-11-27T05:53:40.826Z,82.67
2023-11-27T05:56:09.910Z,81.46
2023-11-27T05:58:36.951Z,81.63
2023-11-27T06:01:04.319Z,81.73
2023-11-27T06:03:31.371Z,81.53
2023-11-27T06:05:58.725Z,81.30
2023-11-27T06:08:26.351Z,81.44
2023-11-27T06:10:53.600Z,81.92
2023-11-27T06:13:21.229Z,81.42
2023-11-27T06:15:48.601Z,81.86
2023-11-27T06:18:15.777Z,81.44
2023-11-27T06:20:43.226Z,81.41
2023-11-27T06:23:10.267Z,81.08
2023-11-27T06:25:37.521Z,81.43
2023-11-27T06:28:04.924Z,80.95
2023-11-27T06:30:32.142Z,81.13
2023-11-27T06:32:59.503Z,81.22
2023-11-27T06:35:26.779Z,80.27
2023-11-27T06:37:53.803Z,81.24
2023-11-27T06:40:26.742Z,80.99
2023-11-27T06:42:58.006Z,80.99
2023-11-27T06:45:25.307Z,80.73
2023-11-27T06:47:52.270Z,80.80
2023-11-27T06:50:19.547Z,81.31
2023-11-27T06:52:46.808Z,81.40
2023-11-27T06:55:14.535Z,81.50
2023-11-27T06:57:42.784Z,81.03
2023-11-27T07:00:12.174Z,81.59
2023-11-27T07:02:39.485Z,81.02
2023-11-27T07:05:07.230Z,81.71
2023-11-27T07:07:34.171Z,80.63
2023-11-27T07:10:01.650Z,81.21
2023-11-27T07:12:28.662Z,80.61
2023-11-27T07:14:55.842Z,80.96
2023-11-27T07:17:23.305Z,80.95
2023-11-27T07:19:50.587Z,81.49
2023-11-27T07:22:17.799Z,80.53
2023-11-27T07:24:45.088Z,80.50
2023-11-27T07:27:12.460Z,81.37
2023-11-27T07:29:39.638Z,81.23
2023-11-27T07:32:07.137Z,81.04
2023-11-27T07:34:34.501Z,81.27
2023-11-27T07:37:01.568Z,81.04
2023-11-27T07:39:29.948Z,81.00
2023-11-27T07:41:56.898Z,80.81
2023-11-27T07:44:26.432Z,80.71
2023-11-27T07:46:53.566Z,80.03
2023-11-27T07:49:21.066Z,80.12
2023-11-27T07:51:48.059Z,80.58
2023-11-27T07:54:15.256Z,80.41
2023-11-27T07:56:42.204Z,79.97
2023-11-27T07:59:10.685Z,79.97
2023-11-27T08:01:38.616Z,79.40
2023-11-27T08:04:06.207Z,79.99
2023-11-27T08:06:33.279Z,79.87
2023-11-27T08:09:00.692Z,80.02
2023-11-27T08:11:34.556Z,79.70
2023-11-27T08:14:02.317Z,79.70
2023-11-27T08:16:30.650Z,79.60
2023-11-27T08:18:58.333Z,79.64
2023-11-27T08:21:26.205Z,79.74
2023-11-27T08:23:55.456Z,79.71
2023-11-27T08:26:23.465Z,78.34
2023-11-27T08:28:50.753Z,78.78
2023-11-27T08:31:21.640Z,79.03
2023-11-27T08:33:50.103Z,78.51
2023-11-27T08:36:25.872Z,78.61
2023-11-27T08:38:59.145Z,78.78
2023-11-27T08:41:26.105Z,78.63
2023-11-27T08:43:53.436Z,77.82
2023-11-27T08:46:21.183Z,77.75
2023-11-27T08:48:48.562Z,78.29
2023-11-27T08:51:15.505Z,78.28
2023-11-27T08:53:42.705Z,77.07
2023-11-27T08:56:12.701Z,78.04
2023-11-27T08:58:39.975Z,77.49
2023-11-27T09:01:07.240Z,76.91
2023-11-27T09:03:34.709Z,76.62
2023-11-27T09:06:01.716Z,77.21
2023-11-27T09:08:29.141Z,76.79
2023-11-27T09:10:56.081Z,75.64
2023-11-27T09:13:23.349Z,75.74
2023-11-27T09:15:51.336Z,75.02
2023-11-27T09:18:18.651Z,75.82
2023-11-27T09:20:45.807Z,74.71
2023-11-27T09:23:13.504Z,75.17
2023-11-27T09:25:40.739Z,74.62
2023-11-27T09:28:08.008Z,75.33
2023-11-27T09:30:35.871Z,75.85
2023-11-27T09:33:05.546Z,75.11
2023-11-27T09:35:32.913Z,73.83
2023-11-27T09:38:00.813Z,74.31
2023-11-27T09:40:43.275Z,74.05
2023-11-27T09:43:10.990Z,73.98
2023-11-27T09:45:38.752Z,74.31
2023-11-27T09:48:12.194Z,74.01
2023-11-27T09:50:45.694Z,73.57
2023-11-27T09:53:20.369Z,73.76
2023-11-27T09:55:51.667Z,73.06
2023-11-27T09:58:23.030Z,73.78
2023-11-27T10:00:50.503Z,73.21
2023-11-27T10:03:20.618Z,73.43
2023-11-27T10:05:50.669Z,71.69
2023-11-27T10:08:18.157Z,72.22
2023-11-27T10:10:45.717Z,73.07
2023-11-27T10:15:55.076Z,72.31
2023-11-27T10:18:22.644Z,70.63
2023-11-27T10:20:53.697Z,71.95
2023-11-27T10:23:22.287Z,71.82
2023-11-27T10:26:00.262Z,71.42
2023-11-27T10:28:46.607Z,72.03
2023-11-27T10:31:15.554Z,69.96
2023-11-27T10:33:43.262Z,69.84
2023-11-27T10:36:11.250Z,70.06
2023-11-27T10:38:38.668Z,70.03
2023-11-27T10:41:06.577Z,70.18
2023-11-27T10:43:37.479Z,69.88
2023-11-27T10:46:08.842Z,69.93
2023-11-27T10:48:43.868Z,69.56
2023-11-27T10:51:16.815Z,68.83
2023-11-27T10:53:47.875Z,69.37
2023-11-27T10:56:16.426Z,68.68
2023-11-27T10:58:49.196Z,69.17
2023-11-27T11:01:20.541Z,68.51
2023-11-27T11:03:55.444Z,68.91
2023-11-27T11:06:26.724Z,68.18
2023-11-27T11:08:58.318Z,68.98
2023-11-27T11:11:27.580Z,68.25
2023-11-27T11:13:55.087Z,68.85
2023-11-27T11:16:26.377Z,67.61
2023-11-27T11:19:17.772Z,68.09
2023-11-27T11:22:26.383Z,68.58
2023-11-27T11:25:17.214Z,68.29
2023-11-27T11:28:07.238Z,67.30
2023-11-27T11:30:36.115Z,67.84
2023-11-27T11:33:20.027Z,66.66
2023-11-27T11:35:51.522Z,65.64
2023-11-27T11:38:22.454Z,66.72
2023-11-27T11:40:50.740Z,66.60
2023-11-27T11:43:18.645Z,65.72
2023-11-27T11:45:50.908Z,65.90
2023-11-27T11:48:20.154Z,66.93
2023-11-27T11:50:48.650Z,66.74
2023-11-27T11:53:15.795Z,66.28
2023-11-27T11:55:43.687Z,66.52
2023-11-27T11:58:20.123Z,66.29
2023-11-27T12:00:48.973Z,65.25
2023-11-27T12:03:23.825Z,65.90
2023-11-27T12:05:56.523Z,65.19
2023-11-27T12:08:30.838Z,65.64
2023-11-27T12:11:00.795Z,65.77
2023-11-27T12:13:38.118Z,65.48
2023-11-27T12:16:14.004Z,65.24
2023-11-27T12:18:45.361Z,64.96
2023-11-27T12:21:16.376Z,64.44
2023-11-27T12:23:47.062Z,64.97
2023-11-27T12:26:24.179Z,64.54
2023-11-27T12:28:53.209Z,63.94
2023-11-27T12:31:23.562Z,63.89
2023-11-27T12:33:52.912Z,63.27
2023-11-27T12:36:23.515Z,62.84
2023-11-27T12:38:54.498Z,63.86
2023-11-27T12:41:34.956Z,63.26
2023-11-27T12:44:18.218Z,64.44
2023-11-27T12:46:52.254Z,65.08
2023-11-27T12:49:24.703Z,63.98
2023-11-27T12:51:54.823Z,64.73
2023-11-27T12:54:23.282Z,64.81
2023-11-27T12:57:02.957Z,63.78
2023-11-27T12:59:30.183Z,63.68
2023-11-27T13:02:00.671Z,64.44
2023-11-27T13:04:33.335Z,64.69
2023-11-27T13:07:06.685Z,64.63
2023-11-27T13:09:34.205Z,65.33
2023-11-27T13:12:16.227Z,65.13
2023-11-27T13:14:44.860Z,65.44
2023-11-27T13:17:21.189Z,65.32
2023-11-27T13:19:57.781Z,64.42
2023-11-27T13:22:33.460Z,64.78
2023-11-27T13:25:07.269Z,65.23
2023-11-27T13:27:35.446Z,65.13
2023-11-27T13:30:02.967Z,65.26
2023-11-27T13:32:30.369Z,64.84
2023-11-27T13:34:58.346Z,65.33
2023-11-27T13:37:35.873Z,64.77
2023-11-27T13:40:05.586Z,65.20
2023-11-27T13:42:34.425Z,64.94
2023-11-27T13:45:02.596Z,64.97
2023-11-27T13:48:20.735Z,64.77
2023-11-27T13:51:36.633Z,65.05
2023-11-27T13:54:10.176Z,64.35
2023-11-27T13:56:37.285Z,64.78
2023-11-27T13:59:13.343Z,64.48
2023-11-27T14:01:56.030Z,63.62
2023-11-27T14:04:29.710Z,64.28
2023-11-27T14:07:00.463Z,64.05
2023-11-27T14:09:46.164Z,63.64
2023-11-27T14:12:13.995Z,64.12
2023-11-27T14:14:49.587Z,64.78
2023-11-27T14:17:32.763Z,64.78
2023-11-27T14:20:20.381Z,64.68
2023-11-27T14:23:30.609Z,64.63
2023-11-27T14:26:11.632Z,64.32
2023-11-27T14:28:48.093Z,64.70
2023-11-27T14:31:19.199Z,64.18
2023-11-27T14:34:26.208Z,64.35
2023-11-27T14:36:54.032Z,63.73
2023-11-27T14:39:22.850Z,64.05
2023-11-27T14:41:56.142Z,63.66
2023-11-27T14:44:24.857Z,63.91
2023-11-27T14:46:54.712Z,63.64
2023-11-27T14:49:30.172Z,64.41
2023-11-27T14:52:06.484Z,63.64
2023-11-27T14:54:33.914Z,63.09
2023-11-27T14:57:10.816Z,63.71
2023-11-27T15:00:09.310Z,63.81
2023-11-27T15:02:44.396Z,63.81
2023-11-27T15:06:09.303Z,64.42
2023-11-27T15:08:36.737Z,64.28
2023-11-27T15:11:06.684Z,63.87
2023-11-27T15:13:34.804Z,63.71
2023-11-27T15:16:01.946Z,63.39
2023-11-27T15:19:45.684Z,64.45
2023-11-27T15:22:21.984Z,63.74
2023-11-27T15:24:50.481Z,63.77
2023-11-27T15:27:17.659Z,64.80
2023-11-27T15:29:44.607Z,64.62
2023-11-27T15:32:16.343Z,64.51
2023-11-27T15:34:43.329Z,64.50
2023-11-27T15:37:10.571Z,65.14
2023-11-27T15:39:59.953Z,65.38
2023-11-27T15:42:28.552Z,65.27
2023-11-27T15:45:49.404Z,65.20
2023-11-27T15:48:21.760Z,64.90
2023-11-27T15:50:49.036Z,65.48
2023-11-27T15:53:18.024Z,65.20
2023-11-27T15:56:19.010Z,65.46
2023-11-27T15:59:05.356Z,65.78
2023-11-27T16:01:45.319Z,66.12
2023-11-27T16:04:13.631Z,66.20
2023-11-27T16:06:41.018Z,65.75
2023-11-27T16:09:10.114Z,66.26
2023-11-27T16:11:37.441Z,66.55
2023-11-27T16:14:14.309Z,66.54
2023-11-27T16:17:14.996Z,66.68
2023-11-27T16:19:42.425Z,66.96
2023-11-27T16:22:11.268Z,67.04
2023-11-27T16:25:21.862Z,67.32
2023-11-27T16:31:41.305Z,67.36
2023-11-27T16:34:08.381Z,67.47
2023-11-27T16:36:35.724Z,67.79
2023-11-27T16:39:06.941Z,68.10
2023-11-27T16:41:34.654Z,67.98
2023-11-27T16:44:01.699Z,67.91
2023-11-27T16:46:29.658Z,69.16
2023-11-27T16:48:58.546Z,69.22
2023-11-27T16:51:25.862Z,68.67
2023-11-27T16:53:52.968Z,69.88
2023-11-27T16:56:20.221Z,69.38
2023-11-27T16:58:47.220Z,70.21
2023-11-27T17:01:17.337Z,70.09
2023-11-27T17:03:47.741Z,70.89
2023-11-27T17:06:15.233Z,70.84
2023-11-27T17:08:42.365Z,71.09
2023-11-27T17:11:09.569Z,70.42
2023-11-27T17:13:36.548Z,70.80
2023-11-27T17:16:05.121Z,71.14
2023-11-27T17:18:32.635Z,70.61
2023-11-27T17:21:01.115Z,70.89
2023-11-27T17:23:28.515Z,71.47
2023-11-27T17:25:56.400Z,71.75
2023-11-27T17:28:25.759Z,71.73
2023-11-27T17:30:53.623Z,71.39
2023-11-27T17:33:20.730Z,71.72
2023-11-27T17:35:48.201Z,71.80
2023-11-27T17:38:15.205Z,71.95
2023-11-27T17:40:43.193Z,72.42
2023-11-27T17:43:13.446Z,72.83
2023-11-27T17:45:43.300Z,72.49
2023-11-27T17:48:10.413Z,73.35
2023-11-27T17:50:37.724Z,73.29
2023-11-27T17:53:05.821Z,73.12
2023-11-27T17:55:39.507Z,73.65
2023-11-27T17:58:14.435Z,73.63
2023-11-27T18:00:44.590Z,73.50
2023-11-27T18:03:11.735Z,73.87
2023-11-27T18:05:39.076Z,73.98
2023-11-27T18:08:06.159Z,73.75
2023-11-27T18:10:34.234Z,73.80
2023-11-27T18:13:05.556Z,73.32
2023-11-27T18:15:33.698Z,73.68
2023-11-27T18:18:01.401Z,73.52
2023-11-27T18:20:31.109Z,73.66
2023-11-27T18:22:58.145Z,73.77
2023-11-27T18:25:25.536Z,74.00
2023-11-27T18:27:56.705Z,73.74
2023-11-27T18:30:24.497Z,73.38
2023-11-27T18:36:36.186Z,74.56
2023-11-27T18:39:57.199Z,74.28
2023-11-27T18:43:01.382Z,74.98
2023-11-27T18:45:29.467Z,74.96
2023-11-27T18:47:57.842Z,75.01
2023-11-27T18:50:25.854Z,75.51
2023-11-27T18:53:11.653Z,75.23
2023-11-27T18:55:56.010Z,75.17
2023-11-27T18:58:23.285Z,75.35
2023-11-27T19:00:50.673Z,75.68
2023-11-27T19:04:16.429Z,76.31
2023-11-27T19:06:47.391Z,76.19
2023-11-27T19:09:43.091Z,75.87
2023-11-27T19:12:19.385Z,76.07
2023-11-27T19:14:52.224Z,76.36
2023-11-27T19:17:22.102Z,76.50
2023-11-27T19:19:50.217Z,76.47
2023-11-27T19:22:19.280Z,77.46
2023-11-27T19:25:37.030Z,77.64
2023-11-27T19:28:04.554Z,77.88
2023-11-27T19:30:31.577Z,77.22
2023-11-27T19:32:58.905Z,77.61
2023-11-27T19:35:25.925Z,77.66
2023-11-27T19:40:51.122Z,77.74
2023-11-27T19:43:18.984Z,77.51
2023-11-27T19:45:46.874Z,78.82
2023-11-27T19:48:14.438Z,78.86
2023-11-27T19:50:41.616Z,78.28
2023-11-27T19:53:10.215Z,78.46
2023-11-27T19:55:38.433Z,77.70
2023-11-27T19:58:06.034Z,77.78
2023-11-27T20:00:56.950Z,78.52
2023-11-27T20:03:42.673Z,77.50
2023-11-27T20:06:10.262Z,78.79
2023-11-27T20:08:37.591Z,78.27
2023-11-27T20:11:04.733Z,78.33
2023-11-27T20:13:32.122Z,78.31
2023-11-27T20:16:00.090Z,78.48
2023-11-27T20:18:51.696Z,78.84
2023-11-27T20:21:18.777Z,78.42
2023-11-27T20:23:58.556Z,78.82
2023-11-27T20:26:49.731Z,80.32
2023-11-27T20:29:26.517Z,79.59
2023-11-27T20:31:53.675Z,78.85
2023-11-27T20:34:21.010Z,78.29
2023-11-27T20:36:49.170Z,78.59
2023-11-27T20:39:16.479Z,78.67
2023-11-27T20:41:44.459Z,78.90
2023-11-27T20:44:12.110Z,78.59
2023-11-27T20:46:39.954Z,78.80
2023-11-27T20:49:07.447Z,78.91
2023-11-27T20:51:34.457Z,78.78
2023-11-27T20:54:02.221Z,78.60
2023-11-27T20:56:29.492Z,78.63
2023-11-27T20:58:59.225Z,79.23
2023-11-27T21:01:28.592Z,79.49
2023-11-27T21:03:56.900Z,78.97
2023-11-27T21:06:26.278Z,78.63
2023-11-27T21:08:54.504Z,78.46
2023-11-27T21:11:24.808Z,78.41
2023-11-27T21:13:54.047Z,78.11
2023-11-27T21:16:21.848Z,77.95
2023-11-27T21:18:50.303Z,78.55
2023-11-27T21:21:17.640Z,78.32
2023-11-27T21:23:44.945Z,78.94
2023-11-27T21:26:15.337Z,78.32
2023-11-27T21:28:43.195Z,78.46
2023-11-27T21:31:11.070Z,78.20
2023-11-27T21:33:38.593Z,78.26
2023-11-27T21:36:05.990Z,78.65
2023-11-27T21:38:33.339Z,77.99
2023-11-27T21:41:00.645Z,78.46
2023-11-27T21:43:28.051Z,79.07
2023-11-27T21:45:55.196Z,78.30
2023-11-27T21:48:23.403Z,78.56
2023-11-27T21:50:50.726Z,78.35
2023-11-27T21:53:18.689Z,78.25
2023-11-27T21:55:46.081Z,78.36
2023-11-27T21:58:13.479Z,77.91
2023-11-27T22:00:40.589Z,79.52
2023-11-27T22:03:08.335Z,78.42
2023-11-27T22:05:35.673Z,78.63
2023-11-27T22:08:03.083Z,78.51
2023-11-27T22:10:31.912Z,78.27
2023-11-27T22:13:00.397Z,79.42
2023-11-27T22:15:27.470Z,78.46
2023-11-27T22:17:54.944Z,78.48
2023-11-27T22:20:22.072Z,78.52
2023-11-27T22:22:49.411Z,78.87
2023-11-27T22:25:16.638Z,80.10
2023-11-27T22:27:43.831Z,79.02
2023-11-27T22:30:11.907Z,78.64
2023-11-27T22:32:39.474Z,79.17
2023-11-27T22:35:07.320Z,78.88
2023-11-27T22:37:36.831Z,78.57
2023-11-27T22:40:06.203Z,78.63
2023-11-27T22:42:33.379Z,78.06
2023-11-27T22:45:00.761Z,78.57
2023-11-27T22:47:28.146Z,79.04
2023-11-27T22:49:55.288Z,78.41
2023-11-27T22:52:22.648Z,78.99
2023-11-27T22:54:49.645Z,78.88
2023-11-27T22:57:16.778Z,79.20
2023-11-27T22:59:43.889Z,78.78
2023-11-27T23:02:12.160Z,79.03
2023-11-27T23:04:40.976Z,79.36
2023-11-27T23:07:08.564Z,79.05
2023-11-27T23:09:35.625Z,78.73
2023-11-27T23:12:03.383Z,79.96
2023-11-27T23:14:30.302Z,80.00
2023-11-27T23:16:57.970Z,81.18
2023-11-27T23:19:25.012Z,81.69
2023-11-27T23:21:52.741Z,82.62
2023-11-27T23:24:26.485Z,82.62
2023-11-27T23:26:55.353Z,81.96
2023-11-27T23:29:23.347Z,82.63
2023-11-27T23:31:54.405Z,82.62
2023-11-27T23:34:24.344Z,82.61
2023-11-27T23:36:52.527Z,81.61
2023-11-27T23:39:19.572Z,81.88
2023-11-27T23:41:46.940Z,81.91
2023-11-27T23:44:13.934Z,81.30
2023-11-27T23:46:42.264Z,81.98
2023-11-27T23:49:09.489Z,80.96
2023-11-27T23:51:36.995Z,80.71
2023-11-27T23:54:04.126Z,80.20
2023-11-27T23:56:31.479Z,80.23
2023-11-27T23:58:58.475Z,79.72
